LFML

Marseille Provence Airport

ICAO Code LFML
IATA Code MRS
Name Marseille Provence Airport
Location Marseille, Provence-Alpes-Cote-d'Azur, FR
Elevation 74 Feet / 22.6 Meters
Latitude 43.43927192
Longitude 5.22142410
METAR LFML 130430Z AUTO 30017KT CAVOK 16/07 Q1016 BECMG 32020G30KT
Extra information Display Charts
Runway Length Width Surface Elevation
13L 11483 ft 148 ft ASP 8 ft
13R 7776 ft 148 ft ASP 8 ft
31R 11483 ft 148 ft ASP 53 ft
31L 7776 ft 148 ft ASP 61 ft